Time;durP1;ratioP1;P1;durP2;ratioP2;P2;SDS_P1;SDS_P2;PMS_P1;PMS_P2;Temp;Humidity;BMP_temperature;BMP_pressure;BME280_temperature;BME280_humidity;BME280_pressure;Samples;Min_cycle;Max_cycle;Signal;HPM_P1;HPM_P2
2024/01/18 00:00:06;;;;;;;;;;;;;;;;;;5035412;28;19924;-18
2024/01/18 00:02:32;;;;;;;;;;;;;;;;;;5035160;28;20291;-19
2024/01/18 00:04:57;;;;;;;;;;;;;;;;;;5035579;28;19996;-20
2024/01/18 00:07:24;;;;;;;;;;;;;;;;;;5035283;28;19909;-19
2024/01/18 00:09:50;;;;;;;;;;;;;;;;;;5035527;28;19920;-19
2024/01/18 00:12:16;;;;;;;;;;;;;;;;;;5035163;28;19909;-20
2024/01/18 00:14:42;;;;;;;;;;;;;;;;;;5035687;28;19909;-20
2024/01/18 00:17:08;;;;;;;;;;;;;;;;;;5035194;28;19967;-19
2024/01/18 00:19:34;;;;;;;;;;;;;;;;;;5035047;28;19921;-19
2024/01/18 00:22:02;;;;;;;;;;;;;;;;;;5035487;28;19909;-19
2024/01/18 00:24:28;;;;;;;;;;;;;;;;;;5035591;28;20015;-19
2024/01/18 00:26:54;;;;;;;;;;;;;;;;;;5034990;28;19948;-19
2024/01/18 00:29:20;;;;;;;;;;;;;;;;;;5035204;28;19909;-19
2024/01/18 00:31:46;;;;;;;;;;;;;;;;;;5034946;28;20348;-19
2024/01/18 00:34:12;;;;;;;;;;;;;;;;;;5034846;28;19909;-19
2024/01/18 00:36:38;;;;;;;;;;;;;;;;;;5034898;28;19909;-19
2024/01/18 00:39:09;;;;;;;;;;;;;;;;;;5034762;28;19924;-18
2024/01/18 00:41:35;;;;;;;;;;;;;;;;;;5034831;28;19909;-17
2024/01/18 00:44:01;;;;;;;;;;;;;;;;;;5033977;28;19967;-20
2024/01/18 00:46:27;;;;;;;;;;;;;;;;;;5034813;28;19928;-17
2024/01/18 00:48:53;;;;;;;;;;;;;;;;;;5034915;28;19955;-20
2024/01/18 00:51:19;;;;;;;;;;;;;;;;;;5034680;28;20017;-19
2024/01/18 00:53:45;;;;;;;;;;;;;;;;;;5034616;28;19909;-19
2024/01/18 00:56:11;;;;;;;;;;;;;;;;;;5033618;28;19993;-18
2024/01/18 00:58:37;;;;;;;;;;;;;;;;;;5034604;28;19939;-19
2024/01/18 01:01:03;;;;;;;;;;;;;;;;;;5035021;28;19913;-18
2024/01/18 01:03:29;;;;;;;;;;;;;;;;;;5034280;28;20268;-19
2024/01/18 01:05:55;;;;;;;;;;;;;;;;;;5033511;28;19937;-19
2024/01/18 01:08:21;;;;;;;;;;;;;;;;;;5034462;28;19920;-20
2024/01/18 01:10:47;;;;;;;;;;;;;;;;;;5034739;28;19913;-20
2024/01/18 01:13:13;;;;;;;;;;;;;;;;;;5034359;28;19963;-18
2024/01/18 01:15:39;;;;;;;;;;;;;;;;;;5034427;28;20303;-22
2024/01/18 01:18:05;;;;;;;;;;;;;;;;;;5034651;28;19963;-18
2024/01/18 01:20:31;;;;;;;;;;;;;;;;;;5034290;28;19971;-18
2024/01/18 01:22:57;;;;;;;;;;;;;;;;;;5034222;28;19996;-20
2024/01/18 01:25:23;;;;;;;;;;;;;;;;;;5034315;28;20008;-19
2024/01/18 01:27:49;;;;;;;;;;;;;;;;;;5034802;28;20350;-19
2024/01/18 01:30:15;;;;;;;;;;;;;;;;;;5034707;28;19909;-21
2024/01/18 01:32:41;;;;;;;;;;;;;;;;;;5034247;28;20016;-20
2024/01/18 01:35:07;;;;;;;;;;;;;;;;;;5033233;28;19914;-18
2024/01/18 01:37:33;;;;;;;;;;;;;;;;;;5034442;28;19909;-20
2024/01/18 01:39:59;;;;;;;;;;;;;;;;;;5034338;28;19928;-20
2024/01/18 01:42:24;;;;;;;;;;;;;;;;;;5034360;28;19909;-19
2024/01/18 01:44:52;;;;;;;;;;;;;;;;;;5034418;28;19936;-19
2024/01/18 01:47:18;;;;;;;;;;;;;;;;;;5034137;28;19909;-19
2024/01/18 01:49:44;;;;;;;;;;;;;;;;;;5034591;28;20345;-26
2024/01/18 01:52:10;;;;;;;;;;;;;;;;;;5033956;28;19944;-19
2024/01/18 01:54:36;;;;;;;;;;;;;;;;;;5034108;28;20303;-19
2024/01/18 01:57:03;;;;;;;;;;;;;;;;;;5037279;28;19909;-18
2024/01/18 01:59:29;;;;;;;;;;;;;;;;;;5037661;28;19913;-19
2024/01/18 02:01:55;;;;;;;;;;;;;;;;;;5036644;28;19917;-18
2024/01/18 02:04:21;;;;;;;;;;;;;;;;;;5037511;28;20330;-19
2024/01/18 02:06:47;;;;;;;;;;;;;;;;;;5038136;28;19974;-19
2024/01/18 02:09:13;;;;;;;;;;;;;;;;;;5037604;28;20003;-20
2024/01/18 02:11:39;;;;;;;;;;;;;;;;;;5037803;28;19909;-21
2024/01/18 02:14:05;;;;;;;;;;;;;;;;;;5037400;28;20425;-18
2024/01/18 02:16:32;;;;;;;;;;;;;;;;;;5037460;28;20366;-20
2024/01/18 02:18:58;;;;;;;;;;;;;;;;;;5036326;28;19909;-20
2024/01/18 02:21:25;;;;;;;;;;;;;;;;;;5037330;28;19932;-19
2024/01/18 02:23:52;;;;;;;;;;;;;;;;;;5037440;28;19917;-20
2024/01/18 02:26:18;;;;;;;;;;;;;;;;;;5037207;28;19909;-20
2024/01/18 02:28:43;;;;;;;;;;;;;;;;;;5037608;28;20271;-19
2024/01/18 02:31:09;;;;;;;;;;;;;;;;;;5037114;28;19909;-19
2024/01/18 02:33:35;;;;;;;;;;;;;;;;;;5037125;28;20020;-19
2024/01/18 02:36:01;;;;;;;;;;;;;;;;;;5037029;28;20318;-18
2024/01/18 02:38:27;;;;;;;;;;;;;;;;;;5036961;28;19909;-21
2024/01/18 02:40:53;;;;;;;;;;;;;;;;;;5037404;28;19914;-19
2024/01/18 02:43:19;;;;;;;;;;;;;;;;;;5036856;28;20383;-19
2024/01/18 02:45:45;;;;;;;;;;;;;;;;;;5035865;28;20260;-19
2024/01/18 02:48:11;;;;;;;;;;;;;;;;;;5036770;28;19936;-19
2024/01/18 02:50:37;;;;;;;;;;;;;;;;;;5036748;28;20213;-19
2024/01/18 02:53:03;;;;;;;;;;;;;;;;;;5036729;28;19909;-19
2024/01/18 02:55:29;;;;;;;;;;;;;;;;;;5035724;28;19963;-19
2024/01/18 02:57:56;;;;;;;;;;;;;;;;;;5036649;28;19927;-19
2024/01/18 03:00:22;;;;;;;;;;;;;;;;;;5036819;28;19932;-18
2024/01/18 03:02:48;;;;;;;;;;;;;;;;;;5036307;28;19909;-19
2024/01/18 03:05:14;;;;;;;;;;;;;;;;;;5037053;28;20016;-19
2024/01/18 03:07:39;;;;;;;;;;;;;;;;;;5036153;28;19909;-21
2024/01/18 03:10:05;;;;;;;;;;;;;;;;;;5036494;28;19975;-20
2024/01/18 03:12:36;;;;;;;;;;;;;;;;;;5036231;28;19917;-19
2024/01/18 03:15:02;;;;;;;;;;;;;;;;;;5036849;28;19909;-18
2024/01/18 03:17:28;;;;;;;;;;;;;;;;;;5036264;28;19916;-21
2024/01/18 03:19:54;;;;;;;;;;;;;;;;;;5036124;28;20012;-20
2024/01/18 03:22:20;;;;;;;;;;;;;;;;;;5036042;28;19936;-20
2024/01/18 03:24:46;;;;;;;;;;;;;;;;;;5036138;28;19913;-19
2024/01/18 03:27:13;;;;;;;;;;;;;;;;;;5036064;28;19935;-21
2024/01/18 03:29:39;;;;;;;;;;;;;;;;;;5036485;28;19940;-19
2024/01/18 03:32:05;;;;;;;;;;;;;;;;;;5035970;28;19967;-19
2024/01/18 03:34:31;;;;;;;;;;;;;;;;;;5036432;28;19909;-19
2024/01/18 03:36:56;;;;;;;;;;;;;;;;;;5036075;28;19913;-21
2024/01/18 03:39:22;;;;;;;;;;;;;;;;;;5035761;28;19913;-19
2024/01/18 03:41:48;;;;;;;;;;;;;;;;;;5035764;28;19909;-23
2024/01/18 03:44:15;;;;;;;;;;;;;;;;;;5035751;28;19976;-20
2024/01/18 03:46:41;;;;;;;;;;;;;;;;;;5035708;28;19909;-19
2024/01/18 03:49:07;;;;;;;;;;;;;;;;;;5035669;28;19913;-18
2024/01/18 03:51:33;;;;;;;;;;;;;;;;;;5035952;28;19909;-18
2024/01/18 03:53:59;;;;;;;;;;;;;;;;;;5035600;28;19909;-18
2024/01/18 03:56:25;;;;;;;;;;;;;;;;;;5035517;28;19909;-18
2024/01/18 03:58:51;;;;;;;;;;;;;;;;;;5035520;28;20343;-19
2024/01/18 04:01:16;;;;;;;;;;;;;;;;;;5035416;28;19917;-21
2024/01/18 04:03:43;;;;;;;;;;;;;;;;;;5035134;28;19948;-19
2024/01/18 04:06:11;;;;;;;;;;;;;;;;;;5035326;28;19909;-18
2024/01/18 04:08:37;;;;;;;;;;;;;;;;;;5035575;28;19940;-20
2024/01/18 04:11:03;;;;;;;;;;;;;;;;;;5035259;28;19912;-18
2024/01/18 04:13:29;;;;;;;;;;;;;;;;;;5035137;28;19963;-19
2024/01/18 04:15:55;;;;;;;;;;;;;;;;;;5034200;28;19949;-21
2024/01/18 04:18:21;;;;;;;;;;;;;;;;;;5035091;28;20387;-19
2024/01/18 04:20:52;;;;;;;;;;;;;;;;;;5035081;28;19963;-19
2024/01/18 04:23:18;;;;;;;;;;;;;;;;;;5035018;28;19996;-19
2024/01/18 04:25:44;;;;;;;;;;;;;;;;;;5034041;28;19940;-20
2024/01/18 04:28:10;;;;;;;;;;;;;;;;;;5035509;28;19981;-19
2024/01/18 04:30:36;;;;;;;;;;;;;;;;;;5034896;28;19909;-17
2024/01/18 04:33:02;;;;;;;;;;;;;;;;;;5035162;28;20422;-21
2024/01/18 04:35:28;;;;;;;;;;;;;;;;;;5035005;28;19920;-19
2024/01/18 04:37:54;;;;;;;;;;;;;;;;;;5034878;28;19909;-20
2024/01/18 04:40:20;;;;;;;;;;;;;;;;;;5034978;28;19917;-20
2024/01/18 04:42:46;;;;;;;;;;;;;;;;;;5033682;28;19981;-20
2024/01/18 04:45:12;;;;;;;;;;;;;;;;;;5034647;28;19915;-20
2024/01/18 04:47:38;;;;;;;;;;;;;;;;;;5035108;28;20321;-19
2024/01/18 04:50:04;;;;;;;;;;;;;;;;;;5034646;28;19916;-23
2024/01/18 04:52:30;;;;;;;;;;;;;;;;;;5034626;28;19909;-21
2024/01/18 04:54:58;;;;;;;;;;;;;;;;;;5034528;28;19909;-17
2024/01/18 04:57:24;;;;;;;;;;;;;;;;;;5034524;28;20245;-19
2024/01/18 04:59:50;;;;;;;;;;;;;;;;;;5034837;28;19913;-19
2024/01/18 05:02:16;;;;;;;;;;;;;;;;;;5440363;23;19925;-20
2024/01/18 05:04:43;;;;;;;;;;;;;;;;;;5014932;28;19929;-22
2024/01/18 05:07:09;;;;;;;;;;;;;;;;;;5013962;28;20354;-22
2024/01/18 05:09:35;;;;;;;;;;;;;;;;;;5014982;28;19940;-22
2024/01/18 05:12:01;;;;;;;;;;;;;;;;;;5014451;28;19914;-25
2024/01/18 05:14:27;;;;;;;;;;;;;;;;;;5014565;28;19925;-21
2024/01/18 05:16:54;;;;;;;;;;;;;;;;;;5013397;28;19909;-22
2024/01/18 05:19:21;;;;;;;;;;;;;;;;;;5014610;28;19909;-21
2024/01/18 05:21:47;;;;;;;;;;;;;;;;;;5013343;28;19961;-22
2024/01/18 05:24:13;;;;;;;;;;;;;;;;;;5014401;28;19913;-21
2024/01/18 05:26:39;;;;;;;;;;;;;;;;;;5014292;28;19910;-21
2024/01/18 05:29:05;;;;;;;;;;;;;;;;;;5014702;28;19914;-32
2024/01/18 05:31:31;;;;;;;;;;;;;;;;;;5017129;28;20335;-20
2024/01/18 05:33:57;;;;;;;;;;;;;;;;;;5018572;28;19936;-21
2024/01/18 05:36:23;;;;;;;;;;;;;;;;;;5018263;28;19983;-21
2024/01/18 05:38:49;;;;;;;;;;;;;;;;;;5018208;28;19909;-22
2024/01/18 05:41:15;;;;;;;;;;;;;;;;;;5018098;28;20030;-22
2024/01/18 05:43:41;;;;;;;;;;;;;;;;;;5017954;28;19921;-24
2024/01/18 05:46:08;;;;;;;;;;;;;;;;;;5017789;28;20404;-21
2024/01/18 05:48:34;;;;;;;;;;;;;;;;;;5017998;28;19910;-20
2024/01/18 05:51:00;;;;;;;;;;;;;;;;;;5018038;28;19909;-21
2024/01/18 05:53:26;;;;;;;;;;;;;;;;;;5017841;28;20008;-22
2024/01/18 05:55:52;;;;;;;;;;;;;;;;;;5017667;28;19910;-21
2024/01/18 05:58:18;;;;;;;;;;;;;;;;;;5017710;28;20350;-22
2024/01/18 06:00:44;;;;;;;;;;;;;;;;;;5016276;28;19913;-21
2024/01/18 06:03:10;;;;;;;;;;;;;;;;;;5017283;28;20000;-21
2024/01/18 06:05:36;;;;;;;;;;;;;;;;;;5017683;28;19910;-20
2024/01/18 06:08:02;;;;;;;;;;;;;;;;;;5017788;28;19988;-20
2024/01/18 06:10:28;;;;;;;;;;;;;;;;;;5017313;28;19955;-20
2024/01/18 06:12:54;;;;;;;;;;;;;;;;;;5017209;28;19910;-22
2024/01/18 06:15:20;;;;;;;;;;;;;;;;;;5017078;28;19953;-24
2024/01/18 06:17:46;;;;;;;;;;;;;;;;;;5017519;28;20000;-21
2024/01/18 06:20:14;;;;;;;;;;;;;;;;;;5017107;28;20372;-21
2024/01/18 06:22:40;;;;;;;;;;;;;;;;;;5015934;28;20182;-22
2024/01/18 06:25:06;;;;;;;;;;;;;;;;;;5015873;28;20000;-22
2024/01/18 06:27:33;;;;;;;;;;;;;;;;;;5016967;28;19909;-21
2024/01/18 06:29:59;;;;;;;;;;;;;;;;;;5016899;28;19920;-22
2024/01/18 06:32:25;;;;;;;;;;;;;;;;;;5016805;28;19914;-20
2024/01/18 06:34:51;;;;;;;;;;;;;;;;;;5017218;28;19909;-21
2024/01/18 06:37:17;;;;;;;;;;;;;;;;;;5016918;28;19917;-23
2024/01/18 06:39:43;;;;;;;;;;;;;;;;;;5016705;28;19913;-23
2024/01/18 06:42:11;;;;;;;;;;;;;;;;;;5015716;28;19910;-22
2024/01/18 06:44:37;;;;;;;;;;;;;;;;;;5016838;28;19929;-21
2024/01/18 06:47:03;;;;;;;;;;;;;;;;;;5015731;28;19910;-20
2024/01/18 06:49:29;;;;;;;;;;;;;;;;;;5016968;28;20275;-20
2024/01/18 06:51:55;;;;;;;;;;;;;;;;;;5015408;28;19913;-21
2024/01/18 06:54:22;;;;;;;;;;;;;;;;;;5016631;28;19909;-23
2024/01/18 06:56:48;;;;;;;;;;;;;;;;;;5016668;28;19932;-22
2024/01/18 06:59:14;;;;;;;;;;;;;;;;;;5016261;28;19909;-22
2024/01/18 07:01:40;;;;;;;;;;;;;;;;;;5016241;28;19988;-21
2024/01/18 07:04:06;;;;;;;;;;;;;;;;;;5015321;28;19944;-22
2024/01/18 07:06:32;;;;;;;;;;;;;;;;;;5016565;28;19909;-22
2024/01/18 07:08:58;;;;;;;;;;;;;;;;;;5016050;28;19941;-21
2024/01/18 07:11:24;;;;;;;;;;;;;;;;;;5015100;28;20002;-21
2024/01/18 07:13:50;;;;;;;;;;;;;;;;;;5014604;28;19985;-23
2024/01/18 07:16:16;;;;;;;;;;;;;;;;;;5015213;28;20294;-24
2024/01/18 07:18:41;;;;;;;;;;;;;;;;;;5015031;28;19944;-23
2024/01/18 07:21:07;;;;;;;;;;;;;;;;;;5014027;28;19952;-21
2024/01/18 07:23:33;;;;;;;;;;;;;;;;;;5015138;28;19924;-20
2024/01/18 07:25:59;;;;;;;;;;;;;;;;;;5015157;28;19913;-23
2024/01/18 07:28:25;;;;;;;;;;;;;;;;;;5013974;28;20299;-22
2024/01/18 07:30:51;;;;;;;;;;;;;;;;;;5014877;28;19909;-23
2024/01/18 07:33:17;;;;;;;;;;;;;;;;;;5014972;28;19998;-21
2024/01/18 07:35:43;;;;;;;;;;;;;;;;;;5013884;28;19910;-20
2024/01/18 07:38:10;;;;;;;;;;;;;;;;;;5015124;28;19909;-21
2024/01/18 07:40:36;;;;;;;;;;;;;;;;;;5015080;28;20004;-21
2024/01/18 07:43:02;;;;;;;;;;;;;;;;;;5015586;28;19928;-22
2024/01/18 07:45:28;;;;;;;;;;;;;;;;;;5015244;28;19910;-22
2024/01/18 07:47:54;;;;;;;;;;;;;;;;;;5015515;28;20005;-22
2024/01/18 07:50:20;;;;;;;;;;;;;;;;;;5015760;28;20303;-22
2024/01/18 07:52:46;;;;;;;;;;;;;;;;;;5015461;28;19916;-21
2024/01/18 07:55:12;;;;;;;;;;;;;;;;;;5015585;28;19953;-21
2024/01/18 07:57:38;;;;;;;;;;;;;;;;;;5015629;28;19933;-21
2024/01/18 08:00:04;;;;;;;;;;;;;;;;;;5015415;28;19960;-21
2024/01/18 08:02:30;;;;;;;;;;;;;;;;;;5015059;28;19924;-22
2024/01/18 08:04:57;;;;;;;;;;;;;;;;;;5015305;28;19909;-22
2024/01/18 08:07:23;;;;;;;;;;;;;;;;;;5015364;28;19909;-24
2024/01/18 08:09:49;;;;;;;;;;;;;;;;;;5015230;28;19916;-27
2024/01/18 08:12:15;;;;;;;;;;;;;;;;;;5015010;28;19913;-21
2024/01/18 08:14:41;;;;;;;;;;;;;;;;;;5015049;28;20343;-20
2024/01/18 08:17:07;;;;;;;;;;;;;;;;;;5013908;28;20000;-22
2024/01/18 08:19:33;;;;;;;;;;;;;;;;;;5014630;28;20360;-22
2024/01/18 08:21:59;;;;;;;;;;;;;;;;;;5014516;28;19910;-23
2024/01/18 08:24:25;;;;;;;;;;;;;;;;;;5014894;28;19910;-22
2024/01/18 08:26:51;;;;;;;;;;;;;;;;;;5014980;28;20340;-20
2024/01/18 08:29:17;;;;;;;;;;;;;;;;;;5013915;28;20268;-20
2024/01/18 08:31:43;;;;;;;;;;;;;;;;;;5014966;28;20068;-23
2024/01/18 08:34:10;;;;;;;;;;;;;;;;;;5013631;28;20245;-21
2024/01/18 08:36:36;;;;;;;;;;;;;;;;;;5014644;28;19909;-21
2024/01/18 08:39:02;;;;;;;;;;;;;;;;;;5014410;28;20252;-21
2024/01/18 08:41:28;;;;;;;;;;;;;;;;;;5014499;28;19914;-22
2024/01/18 08:43:54;;;;;;;;;;;;;;;;;;5014287;28;20079;-21
2024/01/18 08:46:20;;;;;;;;;;;;;;;;;;5014488;28;19910;-22
2024/01/18 08:48:46;;;;;;;;;;;;;;;;;;5014355;28;19914;-23
2024/01/18 08:51:15;;;;;;;;;;;;;;;;;;5013640;28;19920;-22
2024/01/18 08:53:41;;;;;;;;;;;;;;;;;;5014364;28;19909;-24
2024/01/18 08:56:07;;;;;;;;;;;;;;;;;;5013813;28;19949;-21
2024/01/18 08:58:33;;;;;;;;;;;;;;;;;;5014066;28;19967;-21
2024/01/18 09:01:00;;;;;;;;;;;;;;;;;;5014374;28;19913;-21
2024/01/18 09:03:27;;;;;;;;;;;;;;;;;;5014019;28;19924;-21
2024/01/18 09:05:53;;;;;;;;;;;;;;;;;;5012451;28;19952;-21
2024/01/18 09:08:19;;;;;;;;;;;;;;;;;;5014330;28;19944;-22
2024/01/18 09:10:45;;;;;;;;;;;;;;;;;;5013081;28;19932;-22
2024/01/18 09:13:11;;;;;;;;;;;;;;;;;;5014036;28;19972;-23
2024/01/18 09:15:37;;;;;;;;;;;;;;;;;;5014081;28;19913;-22
2024/01/18 09:18:03;;;;;;;;;;;;;;;;;;5014334;28;20337;-22
2024/01/18 09:20:29;;;;;;;;;;;;;;;;;;5014248;28;20016;-23
2024/01/18 09:22:56;;;;;;;;;;;;;;;;;;5013050;28;19986;-23
2024/01/18 09:25:22;;;;;;;;;;;;;;;;;;5014177;28;19910;-22
2024/01/18 09:27:48;;;;;;;;;;;;;;;;;;5013847;28;19917;-22
2024/01/18 09:30:13;;;;;;;;;;;;;;;;;;5013493;28;19909;-21
2024/01/18 09:32:40;;;;;;;;;;;;;;;;;;5013985;28;19913;-23
2024/01/18 09:35:06;;;;;;;;;;;;;;;;;;5014199;28;19953;-22
2024/01/18 09:37:32;;;;;;;;;;;;;;;;;;5014267;28;20340;-21
2024/01/18 09:39:58;;;;;;;;;;;;;;;;;;5013853;28;19914;-21
2024/01/18 09:42:24;;;;;;;;;;;;;;;;;;5013816;28;19909;-20
2024/01/18 09:44:50;;;;;;;;;;;;;;;;;;5013704;28;20320;-21
2024/01/18 09:47:16;;;;;;;;;;;;;;;;;;5013427;28;19929;-22
2024/01/18 09:49:43;;;;;;;;;;;;;;;;;;5013323;28;20008;-23
2024/01/18 09:52:09;;;;;;;;;;;;;;;;;;5013220;28;19910;-24
2024/01/18 09:54:35;;;;;;;;;;;;;;;;;;5013269;28;20268;-23
2024/01/18 09:57:01;;;;;;;;;;;;;;;;;;5013236;28;19909;-22
2024/01/18 09:59:26;;;;;;;;;;;;;;;;;;5013209;28;19917;-20
2024/01/18 10:01:53;;;;;;;;;;;;;;;;;;5013283;28;19909;-23
2024/01/18 10:04:19;;;;;;;;;;;;;;;;;;5013062;28;19917;-21
2024/01/18 10:06:45;;;;;;;;;;;;;;;;;;5013047;28;19967;-22
2024/01/18 10:09:14;;;;;;;;;;;;;;;;;;5013164;28;19944;-22
2024/01/18 10:11:41;;;;;;;;;;;;;;;;;;5013064;28;19914;-23
2024/01/18 10:14:06;;;;;;;;;;;;;;;;;;5012831;28;19909;-27
2024/01/18 10:16:32;;;;;;;;;;;;;;;;;;5012828;28;19910;-22
2024/01/18 10:19:00;;;;;;;;;;;;;;;;;;5016415;28;20097;-22
2024/01/18 10:21:26;;;;;;;;;;;;;;;;;;5016549;28;19917;-23
2024/01/18 10:23:52;;;;;;;;;;;;;;;;;;5016413;28;19917;-21
2024/01/18 10:26:19;;;;;;;;;;;;;;;;;;5016904;28;19932;-22
2024/01/18 10:28:45;;;;;;;;;;;;;;;;;;5016898;28;19913;-22
2024/01/18 10:31:11;;;;;;;;;;;;;;;;;;5016751;28;20379;-21
2024/01/18 10:33:37;;;;;;;;;;;;;;;;;;5017147;28;19967;-22
2024/01/18 10:36:03;;;;;;;;;;;;;;;;;;5016176;28;19909;-21
2024/01/18 10:38:35;;;;;;;;;;;;;;;;;;5017215;28;19932;-22
2024/01/18 10:41:01;;;;;;;;;;;;;;;;;;5017010;28;20264;-22
2024/01/18 10:43:27;;;;;;;;;;;;;;;;;;5016991;28;19967;-22
2024/01/18 10:45:53;;;;;;;;;;;;;;;;;;5017256;28;19933;-22
2024/01/18 10:48:19;;;;;;;;;;;;;;;;;;5017006;28;20343;-21
2024/01/18 10:50:45;;;;;;;;;;;;;;;;;;5016875;28;20004;-22
2024/01/18 10:53:11;;;;;;;;;;;;;;;;;;5015758;28;19960;-22
2024/01/18 10:55:37;;;;;;;;;;;;;;;;;;5016759;28;20025;-23
2024/01/18 10:58:05;;;;;;;;;;;;;;;;;;5015683;28;20009;-22
2024/01/18 11:00:32;;;;;;;;;;;;;;;;;;5016137;28;19923;-22
2024/01/18 11:02:58;;;;;;;;;;;;;;;;;;5015930;28;19972;-22
2024/01/18 11:05:24;;;;;;;;;;;;;;;;;;5016504;28;19921;-24
2024/01/18 11:07:50;;;;;;;;;;;;;;;;;;5016443;28;19916;-21
2024/01/18 11:10:16;;;;;;;;;;;;;;;;;;5016416;28;19910;-21
2024/01/18 11:12:42;;;;;;;;;;;;;;;;;;5016246;28;19989;-20
2024/01/18 11:15:10;;;;;;;;;;;;;;;;;;5016406;28;20244;-22
2024/01/18 11:17:36;;;;;;;;;;;;;;;;;;5016162;28;20408;-22
2024/01/18 11:20:04;;;;;;;;;;;;;;;;;;5016030;28;20027;-23
2024/01/18 11:22:30;;;;;;;;;;;;;;;;;;5016244;28;20248;-21
2024/01/18 11:24:56;;;;;;;;;;;;;;;;;;5016373;28;20232;-20
2024/01/18 11:27:22;;;;;;;;;;;;;;;;;;5015902;28;19909;-22
2024/01/18 11:29:49;;;;;;;;;;;;;;;;;;5014132;28;20009;-22
2024/01/18 11:32:15;;;;;;;;;;;;;;;;;;5015681;28;19971;-23
2024/01/18 11:34:41;;;;;;;;;;;;;;;;;;5015686;28;19909;-21
2024/01/18 11:37:07;;;;;;;;;;;;;;;;;;5015655;28;20001;-21
2024/01/18 11:39:33;;;;;;;;;;;;;;;;;;5015803;28;19918;-21
2024/01/18 11:41:59;;;;;;;;;;;;;;;;;;5015425;28;19964;-22
2024/01/18 11:44:27;;;;;;;;;;;;;;;;;;5014120;28;20191;-20
2024/01/18 11:46:53;;;;;;;;;;;;;;;;;;5015600;28;19910;-21
2024/01/18 11:49:19;;;;;;;;;;;;;;;;;;5015523;28;20346;-22
2024/01/18 11:51:45;;;;;;;;;;;;;;;;;;5015431;28;19967;-22
2024/01/18 11:54:11;;;;;;;;;;;;;;;;;;5015524;28;19913;-21
2024/01/18 11:56:37;;;;;;;;;;;;;;;;;;5015571;28;19933;-22
2024/01/18 11:59:03;;;;;;;;;;;;;;;;;;5015267;28;19909;-20
2024/01/18 12:01:29;;;;;;;;;;;;;;;;;;5015067;28;19936;-20
2024/01/18 12:03:55;;;;;;;;;;;;;;;;;;5014711;28;20335;-23
2024/01/18 12:06:26;;;;;;;;;;;;;;;;;;5014826;28;19909;-24
2024/01/18 12:08:52;;;;;;;;;;;;;;;;;;5014914;28;20244;-23
2024/01/18 12:11:18;;;;;;;;;;;;;;;;;;5013766;28;19909;-23
2024/01/18 12:13:44;;;;;;;;;;;;;;;;;;5013678;28;19909;-21
2024/01/18 12:16:10;;;;;;;;;;;;;;;;;;5014981;28;20020;-22
2024/01/18 12:18:36;;;;;;;;;;;;;;;;;;5013667;28;20293;-23
2024/01/18 12:21:02;;;;;;;;;;;;;;;;;;5013407;28;19913;-21
2024/01/18 12:23:28;;;;;;;;;;;;;;;;;;5014552;28;19915;-22
2024/01/18 12:25:54;;;;;;;;;;;;;;;;;;5013598;28;19909;-21
2024/01/18 12:28:20;;;;;;;;;;;;;;;;;;5014742;28;19915;-21
2024/01/18 12:30:46;;;;;;;;;;;;;;;;;;5014787;28;20038;-20
2024/01/18 12:33:14;;;;;;;;;;;;;;;;;;5014845;28;19945;-23
2024/01/18 12:35:40;;;;;;;;;;;;;;;;;;5014738;28;19909;-20
2024/01/18 12:38:06;;;;;;;;;;;;;;;;;;5014643;28;20352;-22
2024/01/18 12:40:32;;;;;;;;;;;;;;;;;;5013907;28;19924;-23
2024/01/18 12:42:58;;;;;;;;;;;;;;;;;;5014632;28;19916;-21
2024/01/18 12:45:24;;;;;;;;;;;;;;;;;;5014918;28;19909;-21
2024/01/18 12:47:50;;;;;;;;;;;;;;;;;;5015507;28;20011;-27
2024/01/18 12:50:16;;;;;;;;;;;;;;;;;;5014530;28;19952;-24
2024/01/18 12:52:42;;;;;;;;;;;;;;;;;;5013597;28;19981;-26
2024/01/18 12:55:08;;;;;;;;;;;;;;;;;;5014636;28;19909;-29
2024/01/18 12:57:35;;;;;;;;;;;;;;;;;;5014271;28;20119;-28
2024/01/18 13:00:01;;;;;;;;;;;;;;;;;;5014194;28;20374;-27
2024/01/18 13:02:27;;;;;;;;;;;;;;;;;;5014225;28;19925;-27
2024/01/18 13:04:53;;;;;;;;;;;;;;;;;;5014422;28;19909;-27
2024/01/18 13:07:19;;;;;;;;;;;;;;;;;;5014218;28;19910;-30
2024/01/18 13:09:45;;;;;;;;;;;;;;;;;;5014314;28;19913;-28
2024/01/18 13:12:12;;;;;;;;;;;;;;;;;;5014326;28;19932;-26
2024/01/18 13:14:37;;;;;;;;;;;;;;;;;;5014567;28;20289;-25
2024/01/18 13:17:04;;;;;;;;;;;;;;;;;;5014249;28;19914;-29
2024/01/18 13:19:30;;;;;;;;;;;;;;;;;;5014136;28;19910;-27
2024/01/18 13:21:56;;;;;;;;;;;;;;;;;;5014176;28;20048;-29
2024/01/18 13:24:22;;;;;;;;;;;;;;;;;;5014484;28;19925;-24
2024/01/18 13:26:48;;;;;;;;;;;;;;;;;;5014634;28;19909;-27
2024/01/18 13:29:16;;;;;;;;;;;;;;;;;;5014649;28;19910;-25
2024/01/18 13:31:42;;;;;;;;;;;;;;;;;;5014306;28;19920;-25
2024/01/18 13:34:08;;;;;;;;;;;;;;;;;;5013159;28;20007;-26
2024/01/18 13:36:34;;;;;;;;;;;;;;;;;;5014461;28;19996;-24
2024/01/18 13:39:01;;;;;;;;;;;;;;;;;;5013800;28;19913;-26
2024/01/18 13:41:27;;;;;;;;;;;;;;;;;;5014048;28;19913;-25
2024/01/18 13:43:53;;;;;;;;;;;;;;;;;;5014069;28;20004;-24
2024/01/18 13:46:19;;;;;;;;;;;;;;;;;;5014095;28;19910;-29
2024/01/18 13:48:45;;;;;;;;;;;;;;;;;;5013877;28;19913;-27
2024/01/18 13:51:13;;;;;;;;;;;;;;;;;;5014219;28;20241;-30
2024/01/18 13:53:39;;;;;;;;;;;;;;;;;;5017955;28;20329;-25
2024/01/18 13:56:05;;;;;;;;;;;;;;;;;;5017676;28;20296;-30
2024/01/18 13:58:31;;;;;;;;;;;;;;;;;;5017348;28;19910;-23
2024/01/18 14:00:58;;;;;;;;;;;;;;;;;;5017274;28;19996;-32
2024/01/18 14:03:24;;;;;;;;;;;;;;;;;;5017215;28;19991;-25
2024/01/18 14:05:50;;;;;;;;;;;;;;;;;;5017627;28;20391;-22
2024/01/18 14:08:16;;;;;;;;;;;;;;;;;;5017220;28;19915;-26
2024/01/18 14:10:43;;;;;;;;;;;;;;;;;;5017211;28;20287;-26
2024/01/18 14:13:08;;;;;;;;;;;;;;;;;;5016181;28;20418;-23
2024/01/18 14:15:38;;;;;;;;;;;;;;;;;;5017254;28;20021;-25
2024/01/18 14:18:04;;;;;;;;;;;;;;;;;;5017214;28;19909;-25
2024/01/18 14:20:30;;;;;;;;;;;;;;;;;;5017162;28;19975;-22
2024/01/18 14:22:56;;;;;;;;;;;;;;;;;;5017200;28;19909;-24
2024/01/18 14:25:22;;;;;;;;;;;;;;;;;;5016944;28;19960;-28
2024/01/18 14:27:48;;;;;;;;;;;;;;;;;;5015978;28;19910;-26
2024/01/18 14:30:14;;;;;;;;;;;;;;;;;;5017180;28;19928;-27
2024/01/18 14:32:40;;;;;;;;;;;;;;;;;;5017208;28;19909;-25
2024/01/18 14:35:06;;;;;;;;;;;;;;;;;;5016968;28;19967;-24
2024/01/18 14:37:32;;;;;;;;;;;;;;;;;;5017177;28;19920;-27
2024/01/18 14:39:58;;;;;;;;;;;;;;;;;;5017183;28;19914;-27
2024/01/18 14:42:24;;;;;;;;;;;;;;;;;;5016819;28;19989;-26
2024/01/18 14:44:50;;;;;;;;;;;;;;;;;;5017129;28;20352;-22
2024/01/18 14:47:16;;;;;;;;;;;;;;;;;;5016900;28;19929;-28
2024/01/18 14:49:42;;;;;;;;;;;;;;;;;;5016724;28;19968;-20
2024/01/18 14:52:10;;;;;;;;;;;;;;;;;;5015555;28;19910;-27
2024/01/18 14:54:36;;;;;;;;;;;;;;;;;;5016752;28;20386;-27
2024/01/18 14:57:02;;;;;;;;;;;;;;;;;;5016577;28;19910;-27
2024/01/18 14:59:28;;;;;;;;;;;;;;;;;;5016370;28;19913;-26
2024/01/18 15:01:54;;;;;;;;;;;;;;;;;;5016498;28;20225;-24
2024/01/18 15:04:20;;;;;;;;;;;;;;;;;;5015707;28;20304;-26
2024/01/18 15:06:46;;;;;;;;;;;;;;;;;;5016486;28;19914;-27
2024/01/18 15:09:13;;;;;;;;;;;;;;;;;;5016559;28;20340;-28
2024/01/18 15:11:39;;;;;;;;;;;;;;;;;;5016530;28;19940;-23
2024/01/18 15:14:05;;;;;;;;;;;;;;;;;;5016612;28;20004;-25
2024/01/18 15:16:31;;;;;;;;;;;;;;;;;;5016493;28;19909;-25
2024/01/18 15:18:57;;;;;;;;;;;;;;;;;;5016199;28;19910;-30
2024/01/18 15:21:23;;;;;;;;;;;;;;;;;;5016367;28;19940;-29
2024/01/18 15:23:49;;;;;;;;;;;;;;;;;;5015989;28;19909;-29
2024/01/18 15:26:15;;;;;;;;;;;;;;;;;;5015902;28;19979;-28
2024/01/18 15:28:41;;;;;;;;;;;;;;;;;;5015854;28;19953;-31
2024/01/18 15:31:07;;;;;;;;;;;;;;;;;;5016182;28;19910;-27
2024/01/18 15:33:33;;;;;;;;;;;;;;;;;;5015956;28;19914;-24
2024/01/18 15:35:59;;;;;;;;;;;;;;;;;;5016094;28;20015;-26
2024/01/18 15:38:25;;;;;;;;;;;;;;;;;;5015798;28;19917;-26
2024/01/18 15:40:51;;;;;;;;;;;;;;;;;;5015826;28;20360;-28
2024/01/18 15:43:17;;;;;;;;;;;;;;;;;;5015736;28;20210;-35
2024/01/18 15:45:43;;;;;;;;;;;;;;;;;;5015951;28;19956;-27
2024/01/18 15:48:09;;;;;;;;;;;;;;;;;;5015955;28;20368;-28
2024/01/18 15:50:35;;;;;;;;;;;;;;;;;;5014651;28;19913;-27
2024/01/18 15:53:01;;;;;;;;;;;;;;;;;;5015545;28;19909;-29
2024/01/18 15:55:27;;;;;;;;;;;;;;;;;;5015532;28;19914;-24
2024/01/18 15:57:53;;;;;;;;;;;;;;;;;;5015427;28;19909;-27
2024/01/18 16:00:19;;;;;;;;;;;;;;;;;;5015451;28;19918;-27
2024/01/18 16:02:45;;;;;;;;;;;;;;;;;;5015121;28;19925;-25
2024/01/18 16:05:11;;;;;;;;;;;;;;;;;;5015463;28;19938;-26
2024/01/18 16:07:37;;;;;;;;;;;;;;;;;;5015277;28;19917;-24
2024/01/18 16:10:03;;;;;;;;;;;;;;;;;;5015154;28;19916;-28
2024/01/18 16:12:30;;;;;;;;;;;;;;;;;;5015087;28;20304;-27
2024/01/18 16:14:56;;;;;;;;;;;;;;;;;;5014911;28;20229;-26
2024/01/18 16:17:22;;;;;;;;;;;;;;;;;;5014370;28;19917;-24
2024/01/18 16:19:48;;;;;;;;;;;;;;;;;;5014685;28;19929;-29
2024/01/18 16:22:14;;;;;;;;;;;;;;;;;;5014458;28;19952;-25
2024/01/18 16:24:40;;;;;;;;;;;;;;;;;;5014708;28;19916;-27
2024/01/18 16:27:06;;;;;;;;;;;;;;;;;;5014443;28;19916;-25
2024/01/18 16:29:32;;;;;;;;;;;;;;;;;;5014370;28;20344;-29
2024/01/18 16:31:58;;;;;;;;;;;;;;;;;;5014341;28;19932;-23
2024/01/18 16:34:24;;;;;;;;;;;;;;;;;;5014655;28;19910;-24
2024/01/18 16:36:50;;;;;;;;;;;;;;;;;;5013361;28;19914;-24